createdAt,value
2018-06-18T00:00:12.488Z,16.20
2018-06-18T00:01:12.494Z,16.15
2018-06-18T00:02:12.488Z,16.11
2018-06-18T00:03:12.492Z,16.08
2018-06-18T00:04:12.491Z,16.08
2018-06-18T00:05:12.492Z,16.11
2018-06-18T00:06:12.494Z,16.07
2018-06-18T00:07:12.495Z,16.07
2018-06-18T00:08:12.494Z,16.14
2018-06-18T00:09:12.494Z,16.11
2018-06-18T00:10:12.496Z,16.12
2018-06-18T00:11:12.496Z,16.20
2018-06-18T00:12:12.496Z,16.08
2018-06-18T00:13:12.497Z,16.09
2018-06-18T00:14:12.497Z,16.12
2018-06-18T00:15:12.499Z,16.07
2018-06-18T00:16:12.500Z,16.02
2018-06-18T00:17:12.499Z,16.05
2018-06-18T00:18:12.499Z,16.11
2018-06-18T00:19:12.506Z,15.84
2018-06-18T00:20:12.501Z,15.84
2018-06-18T00:21:12.503Z,15.84
2018-06-18T00:22:12.502Z,15.69
2018-06-18T00:23:12.504Z,15.72
2018-06-18T00:24:12.504Z,15.72
2018-06-18T00:25:12.504Z,15.57
2018-06-18T00:26:12.506Z,15.64
2018-06-18T00:27:12.505Z,15.62
2018-06-18T00:28:12.505Z,15.62
2018-06-18T00:29:12.507Z,15.65
2018-06-18T00:30:12.509Z,15.64
2018-06-18T00:31:12.507Z,15.56
2018-06-18T00:32:12.509Z,15.57
2018-06-18T00:33:12.513Z,15.51
2018-06-18T00:34:12.513Z,15.59
2018-06-18T00:35:12.511Z,15.59
2018-06-18T00:36:12.510Z,15.43
2018-06-18T00:37:12.517Z,15.50
2018-06-18T00:38:12.513Z,15.49
2018-06-18T00:39:12.514Z,15.43
2018-06-18T00:40:12.515Z,15.39
2018-06-18T00:41:12.516Z,15.32
2018-06-18T00:42:12.517Z,15.29
2018-06-18T00:43:12.511Z,15.17
2018-06-18T00:44:12.514Z,15.23
2018-06-18T00:45:12.517Z,15.29
2018-06-18T00:46:12.517Z,15.25
2018-06-18T00:47:12.516Z,15.14
2018-06-18T00:48:12.517Z,15.17
2018-06-18T00:49:12.518Z,15.16
2018-06-18T00:50:12.518Z,15.20
2018-06-18T00:51:12.518Z,15.07
2018-06-18T00:52:12.517Z,15.10
2018-06-18T00:53:12.517Z,15.10
2018-06-18T00:54:12.518Z,15.13
2018-06-18T00:55:12.522Z,15.09
2018-06-18T00:56:12.519Z,15.14
2018-06-18T00:57:12.522Z,15.20
2018-06-18T00:58:12.527Z,15.11
2018-06-18T00:59:12.521Z,15.17
2018-06-18T01:00:12.521Z,15.14
2018-06-18T01:01:12.521Z,15.11
2018-06-18T01:02:12.522Z,15.09
2018-06-18T01:03:12.522Z,14.94
2018-06-18T01:04:12.521Z,14.99
2018-06-18T01:05:12.523Z,14.96
2018-06-18T01:06:12.523Z,14.99
2018-06-18T01:07:12.524Z,14.98
2018-06-18T01:08:12.522Z,15.01
2018-06-18T01:09:12.524Z,14.91
2018-06-18T01:10:12.526Z,14.96
2018-06-18T01:11:12.522Z,14.73
2018-06-18T01:12:12.527Z,14.77
2018-06-18T01:13:12.525Z,14.83
2018-06-18T01:14:12.525Z,14.86
2018-06-18T01:15:12.525Z,14.81
2018-06-18T01:16:12.525Z,14.80
2018-06-18T01:17:12.526Z,14.81
2018-06-18T01:18:12.548Z,14.77
2018-06-18T01:19:12.526Z,14.81
2018-06-18T01:20:12.524Z,14.83
2018-06-18T01:21:12.525Z,14.75
2018-06-18T01:22:12.527Z,14.73
2018-06-18T01:23:12.526Z,14.70
2018-06-18T01:24:12.523Z,14.69
2018-06-18T01:25:12.525Z,14.73
2018-06-18T01:26:12.525Z,14.77
2018-06-18T01:27:12.525Z,14.70
2018-06-18T01:28:12.524Z,14.64
2018-06-18T01:29:12.529Z,14.62
2018-06-18T01:30:12.526Z,14.60
2018-06-18T01:31:12.522Z,14.60
2018-06-18T01:32:12.524Z,14.61
2018-06-18T01:33:12.525Z,14.58
2018-06-18T01:34:12.525Z,14.60
2018-06-18T01:35:12.526Z,14.54
2018-06-18T01:36:12.526Z,14.57
2018-06-18T01:37:12.529Z,14.60
2018-06-18T01:38:12.525Z,14.62
2018-06-18T01:39:12.523Z,14.54
2018-06-18T01:40:12.526Z,14.60
2018-06-18T01:41:12.527Z,14.58
2018-06-18T01:42:12.525Z,14.55
2018-06-18T01:43:12.526Z,14.58
2018-06-18T01:44:12.531Z,14.62
2018-06-18T01:45:12.525Z,14.54
2018-06-18T01:46:12.525Z,14.58
2018-06-18T01:47:12.529Z,14.54
2018-06-18T01:48:12.533Z,14.47
2018-06-18T01:49:12.525Z,14.43
2018-06-18T01:50:12.526Z,14.32
2018-06-18T01:51:12.526Z,14.36
2018-06-18T01:52:12.531Z,14.33
2018-06-18T01:53:12.526Z,14.33
2018-06-18T01:54:12.528Z,14.29
2018-06-18T01:55:12.527Z,14.35
2018-06-18T01:56:12.853Z,14.43
2018-06-18T01:57:12.524Z,14.47
2018-06-18T01:58:12.524Z,14.51
2018-06-18T01:59:12.525Z,14.37
2018-06-18T02:00:12.526Z,14.47
2018-06-18T02:01:12.523Z,14.51
2018-06-18T02:02:12.527Z,14.55
2018-06-18T02:03:12.524Z,14.61
2018-06-18T02:04:12.524Z,14.69
2018-06-18T02:05:12.524Z,14.72
2018-06-18T02:06:12.524Z,14.60
2018-06-18T02:07:12.527Z,14.60
2018-06-18T02:08:12.527Z,14.55
2018-06-18T02:09:12.521Z,14.46
2018-06-18T02:10:12.521Z,14.32
2018-06-18T02:11:12.521Z,14.25
2018-06-18T02:12:12.520Z,14.27
2018-06-18T02:13:12.521Z,14.20
2018-06-18T02:14:12.527Z,14.24
2018-06-18T02:15:12.519Z,14.15
2018-06-18T02:16:12.568Z,14.10
2018-06-18T02:17:12.519Z,14.14
2018-06-18T02:18:12.518Z,14.12
2018-06-18T02:19:12.517Z,14.03
2018-06-18T02:20:12.516Z,14.04
2018-06-18T02:21:12.518Z,13.95
2018-06-18T02:22:12.517Z,13.87
2018-06-18T02:23:12.517Z,13.89
2018-06-18T02:24:12.515Z,13.87
2018-06-18T02:25:12.513Z,13.85
2018-06-18T02:26:12.513Z,13.89
2018-06-18T02:27:12.513Z,13.96
2018-06-18T02:28:12.514Z,13.99
2018-06-18T02:29:12.558Z,13.99
2018-06-18T02:30:12.511Z,14.07
2018-06-18T02:31:12.510Z,14.09
2018-06-18T02:32:12.512Z,14.10
2018-06-18T02:33:12.509Z,14.10
2018-06-18T02:34:12.510Z,14.12
2018-06-18T02:35:12.507Z,14.09
2018-06-18T02:36:12.507Z,14.02
2018-06-18T02:37:12.513Z,14.14
2018-06-18T02:38:12.507Z,14.09
2018-06-18T02:39:12.505Z,14.14
2018-06-18T02:40:12.506Z,14.06
2018-06-18T02:41:12.502Z,14.03
2018-06-18T02:42:12.506Z,14.06
2018-06-18T02:43:12.504Z,14.03
2018-06-18T02:44:12.504Z,13.97
2018-06-18T02:45:12.504Z,14.02
2018-06-18T02:46:12.502Z,13.96
2018-06-18T02:47:12.502Z,14.02
2018-06-18T02:48:12.502Z,14.03
2018-06-18T02:49:12.499Z,14.03
2018-06-18T02:50:12.499Z,13.96
2018-06-18T02:51:12.503Z,13.97
2018-06-18T02:52:12.499Z,13.96
2018-06-18T02:53:12.501Z,13.99
2018-06-18T02:54:12.496Z,13.85
2018-06-18T02:55:12.498Z,13.87
2018-06-18T02:56:12.500Z,13.87
2018-06-18T02:57:12.498Z,13.89
2018-06-18T02:58:12.495Z,13.87
2018-06-18T02:59:12.496Z,13.92
2018-06-18T03:00:12.494Z,13.92
2018-06-18T03:01:12.493Z,13.87
2018-06-18T03:02:12.560Z,13.92
2018-06-18T03:03:12.493Z,14.03
2018-06-18T03:04:12.491Z,13.81
2018-06-18T03:05:12.487Z,13.87
2018-06-18T03:06:12.491Z,13.81
2018-06-18T03:07:12.490Z,13.85
2018-06-18T03:08:12.489Z,13.89
2018-06-18T03:09:12.487Z,13.85
2018-06-18T03:10:12.489Z,13.95
2018-06-18T03:11:12.487Z,13.95
2018-06-18T03:12:12.499Z,14.07
2018-06-18T03:13:12.486Z,14.04
2018-06-18T03:14:12.486Z,14.04
2018-06-18T03:15:12.486Z,14.03
2018-06-18T03:16:12.481Z,14.10
2018-06-18T03:17:12.485Z,14.15
2018-06-18T03:18:12.483Z,14.18
2018-06-18T03:19:12.483Z,14.09
2018-06-18T03:20:12.479Z,14.20
2018-06-18T03:21:12.480Z,14.27
2018-06-18T03:22:12.480Z,14.25
2018-06-18T03:23:12.480Z,14.36
2018-06-18T03:24:12.479Z,14.45
2018-06-18T03:25:12.478Z,14.43
2018-06-18T03:26:12.478Z,14.68
2018-06-18T03:27:12.477Z,15.06
2018-06-18T03:28:12.475Z,15.59
2018-06-18T03:29:12.476Z,16.11
2018-06-18T03:30:12.477Z,16.58
2018-06-18T03:31:12.476Z,17.04
2018-06-18T03:32:12.475Z,17.44
2018-06-18T03:33:12.473Z,17.71
2018-06-18T03:34:12.472Z,18.00
2018-06-18T03:35:12.473Z,18.23
2018-06-18T03:36:12.473Z,18.48
2018-06-18T03:37:12.504Z,18.62
2018-06-18T03:38:12.471Z,18.75
2018-06-18T03:39:12.472Z,18.75
2018-06-18T03:40:12.472Z,18.76
2018-06-18T03:41:12.472Z,18.94
2018-06-18T03:42:12.472Z,19.07
2018-06-18T03:43:12.471Z,19.16
2018-06-18T03:44:12.472Z,19.04
2018-06-18T03:45:12.472Z,19.04
2018-06-18T03:46:12.474Z,18.90
2018-06-18T03:47:12.475Z,18.67
2018-06-18T03:48:12.472Z,18.91
2018-06-18T03:49:12.478Z,19.22
2018-06-18T03:50:12.473Z,19.51
2018-06-18T03:51:12.475Z,19.96
2018-06-18T03:52:12.473Z,20.02
2018-06-18T03:53:12.479Z,20.28
2018-06-18T03:54:12.477Z,20.51
2018-06-18T03:55:12.479Z,20.76
2018-06-18T03:56:12.503Z,20.70
2018-06-18T03:57:12.477Z,20.73
2018-06-18T03:58:12.482Z,20.97
2018-06-18T03:59:12.482Z,21.29
2018-06-18T04:00:12.484Z,21.58
2018-06-18T04:01:12.485Z,21.79
2018-06-18T04:02:12.524Z,22.09
2018-06-18T04:03:12.488Z,22.46
2018-06-18T04:04:12.487Z,22.73
2018-06-18T04:05:12.506Z,22.94
2018-06-18T04:06:12.493Z,23.32
2018-06-18T04:07:12.492Z,23.54
2018-06-18T04:08:12.495Z,23.73
2018-06-18T04:09:12.506Z,23.93
2018-06-18T04:10:12.497Z,24.18
2018-06-18T04:11:12.499Z,24.31
2018-06-18T04:12:12.508Z,24.31
2018-06-18T04:13:12.499Z,24.12
2018-06-18T04:14:12.504Z,23.53
2018-06-18T04:15:12.506Z,23.16
2018-06-18T04:16:12.506Z,23.57
2018-06-18T04:17:12.508Z,24.08
2018-06-18T04:18:12.514Z,24.50
2018-06-18T04:19:12.512Z,24.90
2018-06-18T04:20:12.517Z,25.13
2018-06-18T04:21:12.516Z,25.30
2018-06-18T04:22:12.519Z,25.51
2018-06-18T04:23:12.520Z,25.79
2018-06-18T04:24:12.522Z,25.83
2018-06-18T04:25:12.525Z,26.18
2018-06-18T04:26:12.531Z,26.32
2018-06-18T04:27:12.530Z,26.57
2018-06-18T04:28:12.531Z,26.77
2018-06-18T04:29:12.531Z,26.92
2018-06-18T04:30:12.536Z,27.19
2018-06-18T04:31:12.539Z,27.31
2018-06-18T04:32:12.541Z,27.49
2018-06-18T04:33:12.546Z,27.55
2018-06-18T04:34:12.547Z,27.75
2018-06-18T04:35:12.549Z,27.50
2018-06-18T04:36:12.550Z,27.41
2018-06-18T04:37:12.559Z,27.65
2018-06-18T04:38:12.554Z,27.62
2018-06-18T04:39:12.559Z,27.82
2018-06-18T04:40:12.561Z,28.14
2018-06-18T04:41:12.567Z,28.43
2018-06-18T04:42:12.569Z,28.62
2018-06-18T04:43:12.570Z,28.64
2018-06-18T04:44:12.572Z,28.85
2018-06-18T04:45:12.575Z,29.04
2018-06-18T04:46:12.578Z,29.28
2018-06-18T04:47:12.583Z,29.26
2018-06-18T04:48:12.590Z,29.37
2018-06-18T04:49:12.589Z,29.46
2018-06-18T04:50:12.593Z,29.18
2018-06-18T04:51:12.616Z,27.67
2018-06-18T04:52:12.595Z,26.15
2018-06-18T04:53:12.599Z,25.18
2018-06-18T04:54:12.605Z,24.96
2018-06-18T04:55:12.611Z,23.91
2018-06-18T04:56:12.616Z,23.25
2018-06-18T04:57:12.617Z,23.32
2018-06-18T04:58:12.622Z,23.22
2018-06-18T04:59:12.627Z,23.17
2018-06-18T05:00:12.628Z,23.01
2018-06-18T05:01:12.634Z,22.95
2018-06-18T05:02:12.637Z,23.01
2018-06-18T05:03:12.641Z,22.98
2018-06-18T05:04:12.645Z,22.97
2018-06-18T05:05:12.648Z,22.55
2018-06-18T05:06:12.654Z,22.46
2018-06-18T05:07:12.658Z,22.25
2018-06-18T05:08:12.661Z,22.15
2018-06-18T05:09:12.667Z,21.83
2018-06-18T05:10:12.670Z,21.77
2018-06-18T05:11:12.670Z,21.53
2018-06-18T05:12:12.675Z,21.44
2018-06-18T05:13:12.679Z,21.43
2018-06-18T05:14:12.682Z,21.13
2018-06-18T05:15:12.683Z,20.88
2018-06-18T05:16:12.689Z,20.80
2018-06-18T05:17:12.712Z,20.67
2018-06-18T05:18:12.695Z,20.57
2018-06-18T05:19:12.697Z,20.35
2018-06-18T05:20:12.701Z,20.17
2018-06-18T05:21:12.703Z,20.02
2018-06-18T05:22:12.707Z,20.01
2018-06-18T05:23:12.710Z,19.87
2018-06-18T05:24:12.710Z,19.83
2018-06-18T05:25:12.716Z,19.66
2018-06-18T05:26:12.719Z,19.66
2018-06-18T05:27:12.717Z,19.68
2018-06-18T05:28:12.721Z,19.63
2018-06-18T05:29:12.724Z,19.71
2018-06-18T05:30:12.727Z,19.71
2018-06-18T05:31:12.729Z,19.68
2018-06-18T05:32:12.731Z,19.71
2018-06-18T05:33:12.734Z,19.65
2018-06-18T05:34:12.736Z,19.71
2018-06-18T05:35:12.740Z,19.69
2018-06-18T05:36:12.740Z,19.69
2018-06-18T05:37:12.742Z,19.78
2018-06-18T05:38:12.747Z,19.74
2018-06-18T05:39:12.753Z,19.81
2018-06-18T05:40:12.748Z,19.84
2018-06-18T05:41:12.750Z,19.83
2018-06-18T05:42:12.755Z,19.77
2018-06-18T05:43:12.757Z,19.98
2018-06-18T05:44:12.760Z,19.86
2018-06-18T05:45:12.759Z,19.78
2018-06-18T05:46:12.760Z,19.81
2018-06-18T05:47:12.764Z,19.80
2018-06-18T05:48:12.763Z,19.87
2018-06-18T05:49:12.766Z,19.87
2018-06-18T05:50:12.771Z,19.81
2018-06-18T05:51:12.772Z,19.80
2018-06-18T05:52:12.772Z,19.80
2018-06-18T05:53:12.775Z,19.84
2018-06-18T05:54:12.773Z,19.76
2018-06-18T05:55:12.783Z,19.65
2018-06-18T05:56:12.780Z,19.74
2018-06-18T05:57:12.787Z,19.73
2018-06-18T05:58:12.785Z,19.69
2018-06-18T05:59:12.788Z,19.77
2018-06-18T06:00:12.788Z,19.78
2018-06-18T06:01:12.789Z,19.88
2018-06-18T06:02:12.793Z,19.99
2018-06-18T06:03:12.796Z,20.06
2018-06-18T06:04:12.795Z,20.32
2018-06-18T06:05:12.798Z,20.23
2018-06-18T06:06:12.805Z,20.36
2018-06-18T06:07:12.800Z,20.42
2018-06-18T06:08:12.809Z,20.54
2018-06-18T06:09:12.806Z,20.57
2018-06-18T06:10:12.808Z,20.66
2018-06-18T06:11:12.806Z,20.79
2018-06-18T06:12:12.810Z,21.03
2018-06-18T06:13:12.816Z,21.09
2018-06-18T06:14:12.819Z,21.21
2018-06-18T06:15:12.826Z,21.27
2018-06-18T06:16:12.825Z,21.19
2018-06-18T06:17:12.818Z,21.46
2018-06-18T06:18:12.824Z,21.64
2018-06-18T06:19:12.830Z,21.79
2018-06-18T06:20:12.830Z,21.75
2018-06-18T06:21:12.832Z,21.90
2018-06-18T06:22:12.836Z,21.92
2018-06-18T06:23:12.839Z,22.00
2018-06-18T06:24:12.838Z,22.00
2018-06-18T06:25:12.847Z,22.20
2018-06-18T06:26:12.844Z,22.51
2018-06-18T06:27:12.847Z,22.80
2018-06-18T06:28:12.852Z,22.62
2018-06-18T06:29:12.853Z,23.22
2018-06-18T06:30:12.856Z,23.66
2018-06-18T06:31:12.859Z,23.66
2018-06-18T06:32:12.863Z,23.47
2018-06-18T06:33:12.863Z,23.15
2018-06-18T06:34:12.912Z,23.38
2018-06-18T06:35:12.870Z,23.25
2018-06-18T06:36:12.874Z,23.38
2018-06-18T06:37:12.887Z,23.36
2018-06-18T06:38:12.906Z,23.27
2018-06-18T06:39:12.883Z,23.20
2018-06-18T06:40:12.886Z,23.50
2018-06-18T06:41:12.892Z,23.47
2018-06-18T06:42:12.895Z,23.40
2018-06-18T06:43:12.895Z,22.95
2018-06-18T06:44:12.902Z,22.95
2018-06-18T06:45:12.903Z,23.15
2018-06-18T06:46:12.911Z,23.01
2018-06-18T06:47:12.910Z,22.85
2018-06-18T06:48:12.912Z,22.70
2018-06-18T06:49:12.921Z,22.82
2018-06-18T06:50:12.925Z,22.85
2018-06-18T06:51:12.925Z,22.58
2018-06-18T06:52:12.927Z,22.68
2018-06-18T06:53:12.934Z,22.73
2018-06-18T06:54:12.939Z,22.64
2018-06-18T06:55:12.939Z,22.62
2018-06-18T06:56:12.941Z,22.52
2018-06-18T06:57:12.949Z,22.37
2018-06-18T06:58:12.951Z,22.36
2018-06-18T06:59:12.955Z,22.40
2018-06-18T07:00:12.955Z,22.60
2018-06-18T07:01:12.985Z,22.68
2018-06-18T07:02:12.962Z,22.39
2018-06-18T07:03:12.966Z,22.40
2018-06-18T07:04:12.972Z,22.52
2018-06-18T07:05:12.972Z,22.65
2018-06-18T07:06:12.971Z,22.97
2018-06-18T07:07:12.977Z,24.77
2018-06-18T07:08:12.982Z,26.30
2018-06-18T07:09:12.987Z,27.40
2018-06-18T07:10:12.999Z,28.29
2018-06-18T07:11:12.994Z,29.11
2018-06-18T07:12:12.996Z,29.92
2018-06-18T07:13:13.003Z,30.58
2018-06-18T07:14:13.012Z,30.79
2018-06-18T07:15:13.012Z,31.10
2018-06-18T07:16:13.016Z,30.61
2018-06-18T07:17:13.023Z,29.74
2018-06-18T07:18:13.028Z,29.12
2018-06-18T07:19:13.034Z,28.64
2018-06-18T07:20:13.041Z,28.27
2018-06-18T07:21:13.043Z,27.99
2018-06-18T07:22:13.048Z,27.84
2018-06-18T07:23:13.179Z,27.55
2018-06-18T07:24:13.060Z,27.32
2018-06-18T07:25:13.067Z,27.24
2018-06-18T07:26:13.076Z,27.65
2018-06-18T07:27:13.082Z,27.32
2018-06-18T07:28:13.083Z,27.25
2018-06-18T07:29:13.089Z,27.17
2018-06-18T07:30:13.103Z,27.00
2018-06-18T07:31:13.101Z,26.15
2018-06-18T07:32:13.107Z,25.73
2018-06-18T07:33:13.114Z,25.57
2018-06-18T07:34:13.118Z,25.09
2018-06-18T07:35:13.125Z,24.95
2018-06-18T07:36:13.127Z,24.42
2018-06-18T07:37:13.133Z,23.43
2018-06-18T07:38:13.139Z,23.55
2018-06-18T07:39:13.168Z,23.53
2018-06-18T07:40:13.147Z,23.48
2018-06-18T07:41:13.153Z,23.05
2018-06-18T07:42:13.158Z,23.10
2018-06-18T07:43:13.166Z,23.09
2018-06-18T07:44:13.170Z,23.22
2018-06-18T07:45:13.178Z,23.15
2018-06-18T07:46:13.182Z,23.17
2018-06-18T07:47:13.185Z,23.20
2018-06-18T07:48:13.188Z,23.17
2018-06-18T07:49:13.193Z,23.05
2018-06-18T07:50:13.199Z,23.04
2018-06-18T07:51:13.203Z,22.98
2018-06-18T07:52:13.205Z,22.88
2018-06-18T07:53:13.210Z,23.05
2018-06-18T07:54:13.216Z,23.10
2018-06-18T07:55:13.219Z,23.02
2018-06-18T07:56:13.222Z,22.92
2018-06-18T07:57:13.230Z,22.73
2018-06-18T07:58:13.232Z,22.94
2018-06-18T07:59:13.242Z,22.94
2018-06-18T08:00:13.240Z,23.10
2018-06-18T08:01:13.246Z,22.92
2018-06-18T08:02:13.250Z,22.98
2018-06-18T08:03:13.255Z,23.12
2018-06-18T08:04:13.257Z,22.97
2018-06-18T08:05:13.260Z,23.12
2018-06-18T08:06:13.266Z,23.20
2018-06-18T08:07:13.271Z,23.27
2018-06-18T08:08:13.274Z,23.31
2018-06-18T08:09:13.278Z,23.22
2018-06-18T08:10:13.286Z,23.50
2018-06-18T08:11:13.287Z,23.22
2018-06-18T08:12:13.292Z,23.38
2018-06-18T08:13:13.297Z,23.28
2018-06-18T08:14:13.305Z,23.39
2018-06-18T08:15:13.722Z,23.47
2018-06-18T08:16:13.311Z,23.65
2018-06-18T08:17:13.453Z,23.78
2018-06-18T08:18:13.316Z,23.84
2018-06-18T08:19:13.342Z,23.68
2018-06-18T08:20:13.325Z,23.84
2018-06-18T08:21:13.331Z,24.13
2018-06-18T08:22:13.332Z,24.16
2018-06-18T08:23:13.337Z,24.02
2018-06-18T08:24:13.442Z,24.28
2018-06-18T08:25:13.348Z,24.31
2018-06-18T08:26:13.351Z,24.34
2018-06-18T08:27:13.360Z,24.30
2018-06-18T08:28:13.618Z,24.46
2018-06-18T08:29:13.511Z,24.50
2018-06-18T08:30:13.372Z,24.42
2018-06-18T08:31:13.374Z,24.47
2018-06-18T08:32:13.377Z,23.94
2018-06-18T08:33:13.381Z,23.75
2018-06-18T08:34:13.385Z,24.06
2018-06-18T08:35:13.391Z,24.16
2018-06-18T08:36:13.484Z,24.31
2018-06-18T08:37:13.397Z,24.45
2018-06-18T08:38:13.402Z,24.35
2018-06-18T08:39:13.409Z,24.20
2018-06-18T08:40:13.413Z,24.35
2018-06-18T08:41:13.420Z,24.62
2018-06-18T08:42:13.427Z,24.65
2018-06-18T08:43:13.428Z,24.68
2018-06-18T08:44:13.433Z,24.77
2018-06-18T08:45:13.432Z,24.78
2018-06-18T08:46:13.439Z,24.90
2018-06-18T08:47:13.448Z,24.67
2018-06-18T08:48:13.452Z,24.45
2018-06-18T08:49:13.455Z,24.49
2018-06-18T08:50:13.552Z,24.76
2018-06-18T08:51:13.709Z,24.96
2018-06-18T08:52:13.469Z,25.13
2018-06-18T08:53:13.474Z,25.17
2018-06-18T08:54:13.479Z,25.24
2018-06-18T08:55:13.485Z,25.24
2018-06-18T08:56:13.492Z,25.02
2018-06-18T08:57:13.498Z,24.61
2018-06-18T08:58:13.502Z,25.06
2018-06-18T08:59:13.504Z,25.33
2018-06-18T09:00:13.616Z,25.52
2018-06-18T09:01:13.514Z,25.50
2018-06-18T09:02:13.521Z,25.57
2018-06-18T09:03:13.622Z,25.60
2018-06-18T09:04:13.533Z,25.55
2018-06-18T09:05:13.535Z,25.75
2018-06-18T09:06:13.542Z,25.46
2018-06-18T09:07:13.549Z,25.52
2018-06-18T09:08:13.553Z,25.09
2018-06-18T09:09:13.556Z,24.73
2018-06-18T09:10:13.566Z,25.08
2018-06-18T09:11:13.568Z,25.13
2018-06-18T09:12:13.766Z,25.40
2018-06-18T09:13:13.578Z,25.69
2018-06-18T09:14:13.583Z,25.95
2018-06-18T09:15:13.588Z,26.07
2018-06-18T09:16:13.596Z,26.21
2018-06-18T09:17:13.599Z,25.97
2018-06-18T09:18:13.604Z,26.07
2018-06-18T09:19:13.622Z,26.20
2018-06-18T09:20:13.630Z,26.15
2018-06-18T09:21:13.621Z,25.67
2018-06-18T09:22:14.470Z,26.09
2018-06-18T09:23:14.275Z,26.10
2018-06-18T09:24:13.639Z,26.18
2018-06-18T09:25:13.839Z,26.10
2018-06-18T09:26:13.699Z,26.07
2018-06-18T09:27:14.274Z,25.58
2018-06-18T09:28:13.653Z,25.95
2018-06-18T09:29:13.674Z,26.10
2018-06-18T09:30:13.678Z,25.51
2018-06-18T09:31:13.677Z,25.69
2018-06-18T09:32:13.792Z,25.79
2018-06-18T09:33:13.690Z,26.20
2018-06-18T09:34:13.694Z,25.97
2018-06-18T09:35:13.710Z,25.57
2018-06-18T09:36:13.707Z,25.77
2018-06-18T09:37:13.713Z,25.69
2018-06-18T09:38:13.720Z,26.10
2018-06-18T09:39:13.722Z,26.25
2018-06-18T09:40:13.727Z,26.25
2018-06-18T09:41:13.734Z,26.06
2018-06-18T09:42:13.741Z,26.26
2018-06-18T09:43:13.744Z,26.09
2018-06-18T09:44:13.746Z,25.57
2018-06-18T09:45:13.755Z,25.33
2018-06-18T09:46:13.761Z,25.62
2018-06-18T09:47:13.767Z,25.33
2018-06-18T09:48:13.772Z,25.42
2018-06-18T09:49:13.859Z,25.09
2018-06-18T09:50:13.784Z,25.47
2018-06-18T09:51:13.830Z,25.72
2018-06-18T09:52:13.796Z,25.98
2018-06-18T09:53:13.801Z,26.12
2018-06-18T09:54:13.807Z,26.13
2018-06-18T09:55:13.815Z,26.28
2018-06-18T09:56:13.816Z,26.37
2018-06-18T09:57:13.825Z,26.21
2018-06-18T09:58:14.023Z,26.36
2018-06-18T09:59:13.840Z,26.62
2018-06-18T10:00:14.083Z,26.60
2018-06-18T10:01:13.845Z,26.52
2018-06-18T10:02:13.856Z,26.62
2018-06-18T10:03:13.861Z,26.75
2018-06-18T10:04:13.865Z,26.52
2018-06-18T10:05:13.872Z,26.26
2018-06-18T10:06:13.874Z,26.30
2018-06-18T10:07:13.881Z,26.12
2018-06-18T10:08:13.924Z,25.98
2018-06-18T10:09:13.891Z,26.09
2018-06-18T10:10:13.902Z,25.99
2018-06-18T10:11:13.906Z,26.07
2018-06-18T10:12:13.912Z,25.82
2018-06-18T10:13:13.916Z,25.99
2018-06-18T10:14:13.925Z,25.91
2018-06-18T10:15:13.931Z,25.60
2018-06-18T10:16:13.935Z,25.50
2018-06-18T10:17:13.939Z,25.54
2018-06-18T10:18:13.946Z,25.50
2018-06-18T10:19:13.951Z,25.54
2018-06-18T10:20:13.956Z,25.38
2018-06-18T10:21:13.963Z,25.50
2018-06-18T10:22:13.969Z,25.30
2018-06-18T10:23:13.974Z,24.93
2018-06-18T10:24:14.042Z,24.88
2018-06-18T10:25:13.984Z,24.90
2018-06-18T10:26:13.989Z,24.96
2018-06-18T10:27:13.996Z,25.18
2018-06-18T10:28:13.999Z,25.54
2018-06-18T10:29:14.005Z,25.73
2018-06-18T10:30:14.010Z,25.97
2018-06-18T10:31:14.044Z,25.80
2018-06-18T10:32:14.021Z,25.82
2018-06-18T10:33:14.177Z,25.62
2018-06-18T10:34:14.032Z,25.77
2018-06-18T10:35:14.039Z,25.61
2018-06-18T10:36:14.038Z,25.62
2018-06-18T10:37:14.046Z,25.82
2018-06-18T10:38:14.051Z,26.02
2018-06-18T10:39:14.059Z,25.55
2018-06-18T10:40:14.061Z,25.72
2018-06-18T10:41:14.065Z,25.60
2018-06-18T10:42:14.071Z,25.51
2018-06-18T10:43:14.080Z,25.50
2018-06-18T10:44:14.079Z,25.54
2018-06-18T10:45:14.086Z,25.75
2018-06-18T10:46:14.092Z,25.73
2018-06-18T10:47:14.097Z,25.54
2018-06-18T10:48:14.103Z,25.51
2018-06-18T10:49:14.109Z,25.61
2018-06-18T10:50:14.111Z,25.60
2018-06-18T10:51:14.117Z,25.55
2018-06-18T10:52:14.162Z,25.64
2018-06-18T10:53:14.126Z,25.43
2018-06-18T10:54:14.129Z,25.39
2018-06-18T10:55:14.136Z,25.43
2018-06-18T10:56:14.136Z,25.32
2018-06-18T10:57:14.144Z,25.17
2018-06-18T10:58:14.154Z,25.25
2018-06-18T10:59:14.156Z,25.15
2018-06-18T11:00:14.160Z,25.40
2018-06-18T11:01:14.167Z,25.30
2018-06-18T11:02:14.171Z,25.57
2018-06-18T11:03:14.174Z,25.65
2018-06-18T11:04:14.180Z,25.87
2018-06-18T11:05:14.190Z,25.79
2018-06-18T11:06:14.190Z,25.76
2018-06-18T11:07:14.196Z,25.69
2018-06-18T11:08:14.201Z,25.87
2018-06-18T11:09:14.207Z,26.13
2018-06-18T11:10:14.236Z,26.29
2018-06-18T11:11:14.217Z,26.06
2018-06-18T11:12:14.221Z,26.20
2018-06-18T11:13:14.224Z,26.17
2018-06-18T11:14:14.231Z,26.32
2018-06-18T11:15:14.235Z,26.13
2018-06-18T11:16:14.321Z,25.77
2018-06-18T11:17:14.670Z,25.57
2018-06-18T11:18:14.251Z,25.92
2018-06-18T11:19:14.256Z,26.10
2018-06-18T11:20:14.259Z,26.15
2018-06-18T11:21:14.270Z,26.25
2018-06-18T11:22:14.275Z,26.43
2018-06-18T11:23:14.279Z,26.48
2018-06-18T11:24:14.287Z,26.54
2018-06-18T11:25:14.322Z,26.52
2018-06-18T11:26:14.293Z,26.57
2018-06-18T11:27:14.324Z,26.70
2018-06-18T11:28:14.314Z,26.87
2018-06-18T11:29:14.306Z,26.66
2018-06-18T11:30:14.311Z,26.66
2018-06-18T11:31:14.361Z,26.65
2018-06-18T11:32:14.357Z,26.84
2018-06-18T11:33:14.330Z,26.82
2018-06-18T11:34:14.333Z,26.76
2018-06-18T11:35:14.343Z,26.76
2018-06-18T11:36:14.349Z,26.58
2018-06-18T11:37:14.348Z,26.07
2018-06-18T11:38:14.354Z,26.05
2018-06-18T11:39:14.374Z,26.01
2018-06-18T11:40:14.364Z,25.64
2018-06-18T11:41:14.368Z,25.64
2018-06-18T11:42:14.399Z,25.69
2018-06-18T11:43:14.378Z,25.75
2018-06-18T11:44:14.383Z,25.65
2018-06-18T11:45:14.389Z,25.91
2018-06-18T11:46:14.390Z,25.80
2018-06-18T11:47:14.397Z,25.95
2018-06-18T11:48:14.456Z,25.82
2018-06-18T11:49:14.409Z,25.95
2018-06-18T11:50:14.473Z,25.83
2018-06-18T11:51:14.419Z,25.97
2018-06-18T11:52:14.425Z,25.80
2018-06-18T11:53:14.431Z,26.20
2018-06-18T11:54:14.489Z,26.50
2018-06-18T11:55:14.441Z,26.62
2018-06-18T11:56:14.449Z,26.82
2018-06-18T11:57:14.454Z,27.03
2018-06-18T11:58:14.472Z,26.87
2018-06-18T11:59:14.462Z,27.00
2018-06-18T12:00:14.467Z,27.06
2018-06-18T12:01:14.473Z,26.94
2018-06-18T12:02:14.483Z,26.72
2018-06-18T12:03:14.483Z,26.87
2018-06-18T12:04:14.488Z,26.82
2018-06-18T12:05:14.495Z,26.69
2018-06-18T12:06:14.497Z,26.37
2018-06-18T12:07:14.562Z,26.23
2018-06-18T12:08:14.510Z,25.83
2018-06-18T12:09:14.517Z,25.80
2018-06-18T12:10:14.523Z,25.83
2018-06-18T12:11:14.526Z,26.10
2018-06-18T12:12:14.531Z,26.29
2018-06-18T12:13:14.540Z,26.36
2018-06-18T12:14:14.542Z,26.35
2018-06-18T12:15:14.548Z,26.35
2018-06-18T12:16:14.553Z,26.47
2018-06-18T12:17:14.558Z,26.20
2018-06-18T12:18:14.563Z,26.18
2018-06-18T12:19:14.565Z,26.25
2018-06-18T12:20:14.572Z,25.97
2018-06-18T12:21:14.578Z,25.97
2018-06-18T12:22:14.633Z,26.07
2018-06-18T12:23:14.590Z,26.35
2018-06-18T12:24:14.596Z,26.01
2018-06-18T12:25:14.607Z,26.17
2018-06-18T12:26:14.608Z,26.21
2018-06-18T12:27:14.617Z,26.17
2018-06-18T12:28:14.693Z,26.36
2018-06-18T12:29:14.623Z,26.50
2018-06-18T12:30:14.626Z,26.32
2018-06-18T12:31:14.632Z,26.39
2018-06-18T12:32:14.636Z,26.28
2018-06-18T12:33:14.642Z,26.21
2018-06-18T12:34:14.647Z,26.21
2018-06-18T12:35:14.699Z,26.09
2018-06-18T12:36:14.656Z,25.97
2018-06-18T12:37:14.663Z,26.21
2018-06-18T12:38:14.668Z,25.77
2018-06-18T12:39:14.676Z,25.88
2018-06-18T12:40:14.678Z,26.06
2018-06-18T12:41:14.750Z,25.97
2018-06-18T12:42:14.690Z,26.28
2018-06-18T12:43:14.697Z,26.48
2018-06-18T12:44:14.702Z,26.48
2018-06-18T12:45:14.704Z,26.35
2018-06-18T12:46:14.711Z,26.51
2018-06-18T12:47:14.717Z,26.50
2018-06-18T12:48:14.724Z,26.55
2018-06-18T12:49:14.729Z,26.44
2018-06-18T12:50:14.737Z,26.33
2018-06-18T12:51:14.739Z,26.23
2018-06-18T12:52:14.746Z,26.35